Flight Track Log - Related Links

Times and Time Zones

All times are in EDT time to prevent confusion due to time zone crossing. See the N1944E flight status page for this flight to view local times or setup timezone preferences in your user account.

Time Position Orientation Groundspeed Altitude Reporting Facility
EDT Latitude Longitude Course Direction KTS km/h meters Rate Location/Type
Tue 18:45:47 41.6700 -109.0306 31° Northeast 155 286 2,896  Level Salt Lake Center
Tue 18:46:49 41.7069 -109.0067 26° Northeast 154 285 3,078 223 Climbing Salt Lake Center
Tue 18:47:50 41.7442 -108.9858 23° Northeast 152 282 3,353 238 Climbing Salt Lake Center
Tue 18:48:52 41.7881 -108.9589 25° Northeast 154 285 3,566 208 Climbing Salt Lake Center
Tue 18:49:53 41.8278 -108.9286 30° Northeast 162 299 3,780 327 Climbing Salt Lake Center
Tue 18:50:55 41.8714 -108.8850 37° Northeast 170 315 4,237 327 Climbing Salt Lake Center
Tue 18:51:00 41.8634 -108.8593 31° Northeast  Level FlightAware Approximate
Tue 18:51:56 41.9103 -108.8519 32° Northeast 172 319 4,450  Level Salt Lake Center
Tue 18:52:58 41.9619 -108.8144 28° Northeast 181 335 4,724 208 Climbing Salt Lake Center
Tue 18:53:59 42.0072 -108.7806 29° Northeast 188 348 4,877 178 Climbing Salt Lake Center
Tue 18:55:01 42.0567 -108.7486 26° Northeast 197 365 5,090 178 Climbing Salt Lake Center
Tue 18:56:02 42.1092 -108.7067 31° Northeast 199 369 5,243 178 Climbing Salt Lake Center
Tue 18:57:04 42.1550 -108.6642 35° Northeast 202 373 5,456 104 Climbing Salt Lake Center
Tue 18:58:05 42.2142 -108.6175 30° Northeast 212 393 5,456  Level Salt Lake Center
Tue 18:59:07 42.2692 -108.5742 30° Northeast 227 420 5,456  Level Salt Lake Center
Tue 19:00:08 42.3219 -108.5344 29° Northeast 230 426 5,456 15 Level Salt Lake Center
Tue 19:01:10 42.3822 -108.4919 28° Northeast 224 415 5,486 -15 Climbing Salt Lake Center
Tue 19:02:11 42.4356 -108.4594 24° Northeast 220 407 5,425  Descending Salt Lake Center
Tue 19:03:13 42.5033 -108.4431 10° North 219 406 5,486  Climbing Salt Lake Center
Tue 19:04:14 42.5592 -108.4492 355° North 211 391 5,425 -15 Descending Salt Lake Center
Tue 19:05:16 42.6228 -108.4647 350° North 208 385 5,456 30 Climbing Salt Lake Center
Tue 19:06:17 42.6775 -108.4825 347° North 211 391 5,486  Climbing Salt Lake Center
Tue 19:07:19 42.7322 -108.4931 352° North 208 385 5,456 -30 Descending Salt Lake Center
Tue 19:08:20 42.7894 -108.5197 341° North 196 364 5,425 -15 Descending Salt Lake Center
Tue 19:09:22 42.8386 -108.5486 337° Northwest 199 369 5,425 -45 Level Salt Lake Center
Tue 19:10:23 42.8942 -108.5831 336° Northwest 197 365 5,334 -134 Descending Salt Lake Center
Tue 19:11:25 42.9475 -108.6108 339° North 209 388 5,151 -193 Descending Salt Lake Center
Tue 19:12:26 43.0169 -108.6347 346° North 229 425 4,938 -164 Descending Salt Lake Center
Tue 19:13:28 43.0769 -108.6472 351° North 229 425 4,816 -45 Descending Salt Lake Center
Tue 19:14:29 43.1353 -108.6503 358° North 222 410 4,846  Climbing Salt Lake Center
Tue 19:15:31 43.2003 -108.6517 359° North 212 393 4,816  Descending Salt Lake Center
Tue 19:16:32 43.2519 -108.6606 353° North 203 377 4,846 15 Climbing Salt Lake Center
Tue 19:17:34 43.3139 -108.6728 352° North 201 372 4,846 -15 Level Salt Lake Center
Tue 19:18:35 43.3658 -108.6881 348° North 198 367 4,816  Descending Salt Lake Center
Tue 19:19:37 43.4181 -108.7067 345° North 199 369 4,846 15 Climbing Salt Lake Center
Tue 19:20:38 43.4794 -108.7278 346° North 201 372 4,846 -15 Level Salt Lake Center
Tue 19:21:40 43.5331 -108.7447 347° North 204 378 4,816 -15 Descending Salt Lake Center
Tue 19:22:41 43.5986 -108.7394 North 208 385 4,816 15 Level Salt Lake Center
Tue 19:23:43 43.6531 -108.7297 North 209 388 4,846 15 Climbing Salt Lake Center
Tue 19:24:44 43.7144 -108.7194 North 203 377 4,846 30 Level Salt Lake Center
Tue 19:25:46 43.7678 -108.7114 North 202 373 4,907 30 Climbing Salt Lake Center
Tue 19:26:48 43.8208 -108.7069 North 200 370 4,907  Level Salt Lake Center
Tue 19:27:49 43.8836 -108.7056 North 200 370 4,907  Level Salt Lake Center
Tue 19:28:51 43.9375 -108.7025 North 201 372 4,907  Level Salt Lake Center
Tue 19:29:52 43.9997 -108.6944 North 202 373 4,907  Level Salt Lake Center
Tue 19:30:54 44.0544 -108.6903 North 203 377 4,907  Level Salt Lake Center
Tue 19:31:55 44.1092 -108.6900 360° North 204 378 4,907 -149 Level Salt Lake Center
Tue 19:32:57 44.1725 -108.6939 357° North 203 377 4,602 -268 Descending Salt Lake Center
Tue 19:33:58 44.2333 -108.6906 North 215 398 4,359 -268 Descending Salt Lake Center
Tue 19:35:00 44.3000 -108.6847 North 217 402 4,054 -236 Descending Salt Lake Center
Tue 19:36:02 44.3569 -108.6822 North 215 398 3,871 -193 Descending Salt Lake Center
Tue 19:37:03 44.4114 -108.6756 North 211 391 3,658 -238 Descending Salt Lake Center
Tue 19:38:05 44.4722 -108.6717 North 203 377 3,383 -238 Descending Salt Lake Center
Tue 19:39:06 44.5236 -108.6678 North 197 365 3,170 -208 Descending Salt Lake Center
Tue 19:40:08 44.5769 -108.6714 357° North 184 341 2,957 -265 Descending Salt Lake Center
Tue 19:41:10 44.6186 -108.7083 328° Northwest 183 340 2,621 -253 Descending Salt Lake Center
Tue 19:42:11 44.6533 -108.7544 317° Northwest 182 336 2,438 -164 Descending Salt Lake Center
Tue 19:43:13 44.6256 -108.8281 242° Southwest 190 352 2,286 -74 Descending Salt Lake Center
Tue 19:44:14 44.6031 -108.8786 238° Southwest 176 327 2,286 -149 Level Salt Lake Center
Tue 19:45:16 44.5731 -108.9306 231° Southwest 161 298 1,981 -295 Descending Salt Lake Center

Login

Don't have an account? Register now (free) for customized features, flight alerts, and more!